createdAt,value
2023-02-11T00:00:18.666Z,9.70
2023-02-11T00:02:48.970Z,10.10
2023-02-11T00:05:19.594Z,10.80
2023-02-11T00:07:49.960Z,12.60
2023-02-11T00:10:20.288Z,11.30
2023-02-11T00:12:51.627Z,10.80
2023-02-11T00:15:22.173Z,13.50
2023-02-11T00:17:52.753Z,11.30
2023-02-11T00:20:23.427Z,12.80
2023-02-11T00:22:53.995Z,10.20
2023-02-11T00:25:24.247Z,9.70
2023-02-11T00:27:54.581Z,12.90
2023-02-11T00:30:25.344Z,11.80
2023-02-11T00:32:55.642Z,10.40
2023-02-11T00:35:25.961Z,11.70
2023-02-11T00:37:57.376Z,12.50
2023-02-11T00:40:27.731Z,9.50
2023-02-11T00:42:58.348Z,12.20
2023-02-11T00:45:30.535Z,11.20
2023-02-11T00:48:00.818Z,11.30
2023-02-11T00:50:31.614Z,11.30
2023-02-11T00:53:01.972Z,11.60
2023-02-11T00:55:32.327Z,12.50
2023-02-11T00:58:03.079Z,12.20
2023-02-11T01:00:33.359Z,9.80
2023-02-11T01:03:03.678Z,12.50
2023-02-11T01:05:34.328Z,13.30
2023-02-11T01:08:04.769Z,13.20
2023-02-11T01:10:35.287Z,11.30
2023-02-11T01:13:06.472Z,14.00
2023-02-11T01:15:37.010Z,11.40
2023-02-11T01:18:08.541Z,11.70
2023-02-11T01:20:39.113Z,13.20
2023-02-11T01:23:09.397Z,12.20
2023-02-11T01:25:40.066Z,16.40
2023-02-11T01:28:17.633Z,12.60
2023-02-11T01:30:48.134Z,13.20
2023-02-11T01:33:18.792Z,13.20
2023-02-11T01:35:49.517Z,12.40
2023-02-11T01:38:22.180Z,11.80
2023-02-11T01:40:54.798Z,11.50
2023-02-11T01:43:26.433Z,14.30
2023-02-11T01:46:05.099Z,14.70
2023-02-11T01:48:40.139Z,11.40
2023-02-11T01:51:15.074Z,12.20
2023-02-11T01:54:06.437Z,13.90
2023-02-11T01:56:58.278Z,11.50
2023-02-11T01:59:33.210Z,13.70
2023-02-11T02:02:09.551Z,13.30
2023-02-11T02:04:45.996Z,12.10
2023-02-11T02:07:23.527Z,12.90
2023-02-11T02:09:59.678Z,10.60
2023-02-11T02:12:29.994Z,12.70
2023-02-11T02:18:02.942Z,14.70
2023-02-11T02:21:06.103Z,15.50
2023-02-11T02:23:51.136Z,13.10
2023-02-11T02:26:48.274Z,12.40
2023-02-11T02:29:58.296Z,11.50
2023-02-11T02:32:44.401Z,11.80
2023-02-11T02:35:25.775Z,12.30
2023-02-11T02:38:03.049Z,11.70
2023-02-11T02:40:55.716Z,11.40
2023-02-11T02:43:28.530Z,10.20
2023-02-11T02:46:12.896Z,10.40
2023-02-11T02:48:43.988Z,14.40
2023-02-11T02:51:40.552Z,12.00
2023-02-11T02:54:30.498Z,12.00
2023-02-11T02:57:11.061Z,11.60
2023-02-11T02:59:51.246Z,11.60
2023-02-11T03:02:28.087Z,13.80
2023-02-11T03:05:05.504Z,13.50
2023-02-11T03:07:43.740Z,12.20
2023-02-11T03:10:18.214Z,12.70
2023-02-11T03:12:49.785Z,11.80
2023-02-11T03:15:22.170Z,12.70
2023-02-11T03:17:55.954Z,14.10
2023-02-11T03:20:26.618Z,14.90
2023-02-11T03:23:01.245Z,14.20
2023-02-11T03:25:37.681Z,12.70
2023-02-11T03:28:15.351Z,10.50
2023-02-11T03:30:50.449Z,12.60
2023-02-11T03:33:29.032Z,12.60
2023-02-11T03:36:05.178Z,11.40
2023-02-11T03:38:38.903Z,12.20
2023-02-11T03:41:11.781Z,13.50
2023-02-11T03:43:46.212Z,11.70
2023-02-11T03:46:20.820Z,11.60
2023-02-11T03:48:53.344Z,13.60
2023-02-11T03:51:27.230Z,10.30
2023-02-11T03:54:00.926Z,11.50
2023-02-11T03:56:35.202Z,12.90
2023-02-11T03:59:05.549Z,11.60
2023-02-11T04:01:35.853Z,12.50
2023-02-11T04:04:06.640Z,15.40
2023-02-11T04:06:37.262Z,16.40
2023-02-11T04:09:07.619Z,14.90
2023-02-11T04:11:38.294Z,11.70
2023-02-11T04:14:08.598Z,11.60
2023-02-11T04:16:38.994Z,11.20
2023-02-11T04:19:09.365Z,9.70
2023-02-11T04:21:39.740Z,12.50
2023-02-11T04:24:10.073Z,10.40
2023-02-11T04:26:40.394Z,10.60
2023-02-11T04:29:10.667Z,11.20
2023-02-11T04:31:41.463Z,13.30
2023-02-11T04:34:12.244Z,10.60
2023-02-11T04:36:42.836Z,12.10
2023-02-11T04:39:13.102Z,11.40
2023-02-11T04:41:43.418Z,11.00
2023-02-11T04:44:13.812Z,12.40
2023-02-11T04:46:44.493Z,10.60
2023-02-11T04:49:15.961Z,11.20
2023-02-11T04:51:49.213Z,11.40
2023-02-11T04:54:19.934Z,10.20
2023-02-11T04:56:51.128Z,11.90
2023-02-11T04:59:21.440Z,12.20
2023-02-11T05:01:51.769Z,9.90
2023-02-11T05:04:22.220Z,12.60
2023-02-11T05:06:52.818Z,11.90
2023-02-11T05:09:23.118Z,11.50
2023-02-11T05:11:53.625Z,14.00
2023-02-11T05:14:24.301Z,13.60
2023-02-11T05:16:54.733Z,11.50
2023-02-11T05:19:25.157Z,9.80
2023-02-11T05:22:02.518Z,12.10
2023-02-11T05:24:33.926Z,9.50
2023-02-11T05:27:04.488Z,12.40
2023-02-11T05:29:34.869Z,12.00
2023-02-11T05:32:07.246Z,9.40
2023-02-11T05:34:37.855Z,10.70
2023-02-11T05:37:08.230Z,8.70
2023-02-11T05:39:38.549Z,8.00
2023-02-11T05:42:08.972Z,12.20
2023-02-11T05:44:39.335Z,10.00
2023-02-11T05:47:09.799Z,10.00
2023-02-11T05:49:40.106Z,9.60
2023-02-11T05:52:10.440Z,10.50
2023-02-11T05:54:40.993Z,9.80
2023-02-11T05:57:11.271Z,9.70
2023-02-11T05:59:42.122Z,9.40
2023-02-11T06:02:12.864Z,10.00
2023-02-11T06:04:44.331Z,10.90
2023-02-11T06:07:14.662Z,8.70
2023-02-11T06:09:45.098Z,9.80
2023-02-11T06:12:15.711Z,11.90
2023-02-11T06:14:45.995Z,11.10
2023-02-11T06:17:16.442Z,10.50
2023-02-11T06:19:47.030Z,11.40
2023-02-11T06:22:17.510Z,9.40
2023-02-11T06:25:00.801Z,9.40
2023-02-11T06:27:31.884Z,11.30
2023-02-11T06:30:02.155Z,9.30
2023-02-11T06:32:44.407Z,9.90
2023-02-11T06:35:16.051Z,11.70
2023-02-11T06:37:46.895Z,8.30
2023-02-11T06:40:17.230Z,11.20
2023-02-11T06:42:47.563Z,9.50
2023-02-11T06:45:17.926Z,8.70
2023-02-11T06:47:48.471Z,7.80
2023-02-11T06:50:18.931Z,8.90
2023-02-11T06:52:49.275Z,9.70
2023-02-11T06:55:20.009Z,8.80
2023-02-11T06:57:50.274Z,9.20
2023-02-11T07:00:21.353Z,9.40
2023-02-11T07:02:52.543Z,8.80
2023-02-11T07:05:23.031Z,9.70
2023-02-11T07:07:53.769Z,11.70
2023-02-11T07:10:24.052Z,10.10
2023-02-11T07:12:55.961Z,9.30
2023-02-11T07:15:27.394Z,9.50
2023-02-11T07:17:57.673Z,11.10
2023-02-11T07:20:28.177Z,9.20
2023-02-11T07:22:59.990Z,9.50
2023-02-11T07:25:30.363Z,10.30
2023-02-11T07:28:00.685Z,10.10
2023-02-11T07:30:31.175Z,10.90
2023-02-11T07:33:01.798Z,9.20
2023-02-11T07:35:32.342Z,12.50
2023-02-11T07:38:03.534Z,11.00
2023-02-11T07:40:33.825Z,10.30
2023-02-11T07:43:04.489Z,9.20
2023-02-11T07:45:34.834Z,13.00
2023-02-11T07:48:05.403Z,7.90
2023-02-11T07:50:36.025Z,13.40
2023-02-11T07:53:06.318Z,9.40
2023-02-11T07:55:37.013Z,10.40
2023-02-11T07:58:10.176Z,10.50
2023-02-11T08:00:43.779Z,9.60
2023-02-11T08:03:19.423Z,11.70
2023-02-11T08:05:52.627Z,9.40
2023-02-11T08:08:27.460Z,12.10
2023-02-11T08:11:00.328Z,10.80
2023-02-11T08:13:32.430Z,10.40
2023-02-11T08:16:05.402Z,9.50
2023-02-11T08:18:39.291Z,11.30
2023-02-11T08:21:12.970Z,9.10
2023-02-11T08:23:47.924Z,8.90
2023-02-11T08:26:22.685Z,9.90
2023-02-11T08:28:55.043Z,13.40
2023-02-11T08:31:27.517Z,11.30
2023-02-11T08:33:58.826Z,9.60
2023-02-11T08:36:31.646Z,9.20
2023-02-11T08:39:18.057Z,9.90
2023-02-11T08:41:51.270Z,10.20
2023-02-11T08:44:23.877Z,10.30
2023-02-11T08:46:54.998Z,9.80
2023-02-11T08:49:25.507Z,9.20
2023-02-11T08:51:56.420Z,10.70
2023-02-11T08:54:26.824Z,10.10
2023-02-11T08:56:57.557Z,10.80
2023-02-11T08:59:27.988Z,10.30
2023-02-11T09:01:58.271Z,10.20
2023-02-11T09:04:30.946Z,10.60
2023-02-11T09:07:03.381Z,9.90
2023-02-11T09:09:39.118Z,11.20
2023-02-11T09:12:12.133Z,9.70
2023-02-11T09:14:45.428Z,9.20
2023-02-11T09:17:17.261Z,10.40
2023-02-11T09:19:51.635Z,10.50
2023-02-11T09:22:22.595Z,9.20
2023-02-11T09:24:53.243Z,10.70
2023-02-11T09:27:23.794Z,9.70
2023-02-11T09:29:56.084Z,9.00
2023-02-11T09:32:29.596Z,8.30
2023-02-11T09:35:02.064Z,11.00
2023-02-11T09:37:35.679Z,8.60
2023-02-11T09:40:09.750Z,8.40
2023-02-11T09:42:57.475Z,10.30
2023-02-11T09:45:32.737Z,8.30
2023-02-11T09:48:07.502Z,11.60
2023-02-11T09:50:41.101Z,9.40
2023-02-11T09:53:18.825Z,8.90
2023-02-11T09:55:55.682Z,9.10
2023-02-11T09:58:29.252Z,11.80
2023-02-11T10:01:09.469Z,9.10
2023-02-11T10:04:03.283Z,9.80
2023-02-11T10:06:42.580Z,9.10
2023-02-11T10:09:29.288Z,9.30
2023-02-11T10:12:20.067Z,9.70
2023-02-11T10:15:18.587Z,8.80
2023-02-11T10:18:03.555Z,9.40
2023-02-11T10:20:39.167Z,8.90
2023-02-11T10:23:16.400Z,7.40
2023-02-11T10:25:50.694Z,9.50
2023-02-11T10:28:25.813Z,8.40
2023-02-11T10:31:02.128Z,9.50
2023-02-11T10:33:37.844Z,8.90
2023-02-11T10:36:10.410Z,9.10
2023-02-11T10:38:41.257Z,11.20
2023-02-11T10:41:19.010Z,8.90
2023-02-11T10:43:50.817Z,9.80
2023-02-11T10:46:29.429Z,10.40
2023-02-11T10:49:00.052Z,10.40
2023-02-11T10:51:33.575Z,9.70
2023-02-11T10:54:24.512Z,9.20
2023-02-11T10:57:01.927Z,9.00
2023-02-11T10:59:37.681Z,9.30
2023-02-11T11:02:24.629Z,8.30
2023-02-11T11:05:00.533Z,8.50
2023-02-11T11:07:33.696Z,9.10
2023-02-11T11:10:08.437Z,8.20
2023-02-11T11:12:49.791Z,9.60
2023-02-11T11:15:23.741Z,7.80
2023-02-11T11:18:22.109Z,8.80
2023-02-11T11:21:02.733Z,7.70
2023-02-11T11:23:34.973Z,8.70
2023-02-11T11:26:08.527Z,8.80
2023-02-11T11:28:44.165Z,9.40
2023-02-11T11:31:21.505Z,9.00
2023-02-11T11:33:55.410Z,8.90
2023-02-11T11:36:33.290Z,9.40
2023-02-11T11:41:49.889Z,8.70
2023-02-11T11:44:26.530Z,7.80
2023-02-11T11:47:17.355Z,8.00
2023-02-11T11:49:52.888Z,8.90
2023-02-11T11:52:35.568Z,8.40
2023-02-11T11:55:15.654Z,7.50
2023-02-11T11:57:46.611Z,7.60
2023-02-11T12:00:25.605Z,9.70
2023-02-11T12:03:27.421Z,9.20
2023-02-11T12:06:13.626Z,8.60
2023-02-11T12:08:56.918Z,8.10
2023-02-11T12:11:37.445Z,8.10
2023-02-11T12:14:21.936Z,8.60
2023-02-11T12:17:02.150Z,7.30
2023-02-11T12:20:08.147Z,8.00
2023-02-11T12:22:51.334Z,5.90
2023-02-11T12:25:30.879Z,6.90
2023-02-11T12:28:15.425Z,7.50
2023-02-11T12:30:59.585Z,7.20
2023-02-11T12:33:45.977Z,7.70
2023-02-11T12:36:28.476Z,7.60
2023-02-11T12:39:11.816Z,8.00
2023-02-11T12:42:21.660Z,7.10
2023-02-11T12:45:07.212Z,7.60
2023-02-11T12:47:51.027Z,7.90
2023-02-11T12:50:29.082Z,7.50
2023-02-11T12:53:10.764Z,7.70
2023-02-11T12:55:45.406Z,8.10
2023-02-11T12:58:21.774Z,6.90
2023-02-11T13:01:00.300Z,8.90
2023-02-11T13:03:38.105Z,6.50
2023-02-11T13:06:13.062Z,7.00
2023-02-11T13:08:48.391Z,7.80
2023-02-11T13:11:24.092Z,7.80
2023-02-11T13:14:02.535Z,8.60
2023-02-11T13:16:40.769Z,7.50
2023-02-11T13:19:22.513Z,6.90
2023-02-11T13:22:07.035Z,7.60
2023-02-11T13:24:45.467Z,6.80
2023-02-11T13:27:26.655Z,8.50
2023-02-11T13:30:24.544Z,7.20
2023-02-11T13:33:18.583Z,7.20
2023-02-11T13:36:11.965Z,6.20
2023-02-11T13:38:52.943Z,7.80
2023-02-11T13:41:28.720Z,7.10
2023-02-11T13:44:22.609Z,6.80
2023-02-11T13:46:58.159Z,6.20
2023-02-11T13:49:35.410Z,8.00
2023-02-11T13:52:20.163Z,7.00
2023-02-11T13:54:54.850Z,6.20
2023-02-11T13:57:38.705Z,6.40
2023-02-11T14:00:47.236Z,8.30
2023-02-11T14:03:53.009Z,8.40
2023-02-11T14:06:47.306Z,7.40
2023-02-11T14:09:57.284Z,6.90
2023-02-11T14:12:35.150Z,6.50
2023-02-11T14:15:26.431Z,7.20
2023-02-11T14:17:56.848Z,8.30
2023-02-11T14:20:39.133Z,7.80
2023-02-11T14:23:21.382Z,7.40
2023-02-11T14:26:04.336Z,7.30
2023-02-11T14:28:36.116Z,7.70
2023-02-11T14:31:12.488Z,8.20
2023-02-11T14:34:06.630Z,7.90
2023-02-11T14:37:02.598Z,9.70
2023-02-11T14:39:47.422Z,7.00
2023-02-11T14:42:21.030Z,8.00
2023-02-11T14:44:54.606Z,8.80
2023-02-11T14:47:30.327Z,7.70
2023-02-11T14:50:00.947Z,8.00
2023-02-11T14:52:34.331Z,8.00
2023-02-11T14:55:17.915Z,9.30
2023-02-11T14:57:50.879Z,6.60
2023-02-11T15:00:24.269Z,7.80
2023-02-11T15:02:54.687Z,8.30
2023-02-11T15:05:29.051Z,8.70
2023-02-11T15:08:01.871Z,8.10
2023-02-11T15:10:36.209Z,9.20
2023-02-11T15:13:07.112Z,8.00
2023-02-11T15:15:40.895Z,7.30
2023-02-11T15:18:22.776Z,7.20
2023-02-11T15:20:54.059Z,8.10
2023-02-11T15:23:26.379Z,6.60
2023-02-11T15:25:56.982Z,7.30
2023-02-11T15:28:29.832Z,8.00
2023-02-11T15:31:02.154Z,6.40
2023-02-11T15:33:33.618Z,6.80
2023-02-11T15:36:05.017Z,7.70
2023-02-11T15:38:35.455Z,6.30
2023-02-11T15:41:08.141Z,8.20
2023-02-11T15:43:46.448Z,9.00
2023-02-11T15:46:20.203Z,7.90
2023-02-11T15:48:52.963Z,7.30
2023-02-11T15:51:29.400Z,6.40
2023-02-11T15:54:01.891Z,6.20
2023-02-11T15:56:37.689Z,7.90
2023-02-11T15:59:17.288Z,7.00
2023-02-11T16:01:48.602Z,6.80
2023-02-11T16:04:22.415Z,7.00
2023-02-11T16:06:54.187Z,7.30
2023-02-11T16:09:34.595Z,7.60
2023-02-11T16:12:23.595Z,8.90
2023-02-11T16:14:56.779Z,7.10
2023-02-11T16:17:30.942Z,8.70
2023-02-11T16:20:03.983Z,8.70
2023-02-11T16:22:38.560Z,6.80
2023-02-11T16:25:19.915Z,7.30
2023-02-11T16:27:56.004Z,8.70
2023-02-11T16:30:33.797Z,7.90
2023-02-11T16:33:05.434Z,8.00
2023-02-11T16:35:37.315Z,6.90
2023-02-11T16:38:07.634Z,8.80
2023-02-11T16:40:38.321Z,9.80
2023-02-11T16:43:09.195Z,8.60
2023-02-11T16:45:40.973Z,8.80
2023-02-11T16:48:14.537Z,8.20
2023-02-11T16:50:47.369Z,6.70
2023-02-11T16:53:24.066Z,7.10
2023-02-11T16:55:55.551Z,10.60
2023-02-11T16:58:26.105Z,8.60
2023-02-11T17:00:57.131Z,8.90
2023-02-11T17:03:30.235Z,9.20
2023-02-11T17:06:03.239Z,7.70
2023-02-11T17:08:33.948Z,9.90
2023-02-11T17:11:04.433Z,9.70
2023-02-11T17:13:36.435Z,8.40
2023-02-11T17:16:07.143Z,8.40
2023-02-11T17:18:37.493Z,10.90
2023-02-11T17:21:10.255Z,7.90
2023-02-11T17:23:40.540Z,8.70
2023-02-11T17:26:11.722Z,9.20
2023-02-11T17:28:43.382Z,9.20
2023-02-11T17:31:14.163Z,8.90
2023-02-11T17:33:44.595Z,9.40
2023-02-11T17:36:15.091Z,9.70
2023-02-11T17:38:45.472Z,8.20
2023-02-11T17:41:15.966Z,8.90
2023-02-11T17:43:46.706Z,9.40
2023-02-11T17:46:17.504Z,8.40
2023-02-11T17:48:48.277Z,10.60
2023-02-11T17:51:26.659Z,11.60
2023-02-11T17:53:58.994Z,10.30
2023-02-11T17:56:30.772Z,8.30
2023-02-11T17:59:02.490Z,8.90
2023-02-11T18:01:34.623Z,9.00
2023-02-11T18:04:05.845Z,9.80
2023-02-11T18:06:39.111Z,9.20
2023-02-11T18:09:09.650Z,8.90
2023-02-11T18:11:41.251Z,8.60
2023-02-11T18:14:12.860Z,9.40
2023-02-11T18:16:44.922Z,10.60
2023-02-11T18:19:15.608Z,9.80
2023-02-11T18:21:48.797Z,9.80
2023-02-11T18:24:19.297Z,8.80
2023-02-11T18:26:49.688Z,9.70
2023-02-11T18:29:20.735Z,8.60
2023-02-11T18:31:51.429Z,9.60
2023-02-11T18:34:22.126Z,9.40
2023-02-11T18:36:52.810Z,9.80
2023-02-11T18:39:24.299Z,7.30
2023-02-11T18:41:58.854Z,8.30
2023-02-11T18:44:29.987Z,7.50
2023-02-11T18:47:00.380Z,10.20
2023-02-11T18:49:32.094Z,8.20
2023-02-11T18:52:04.428Z,10.40
2023-02-11T18:54:35.276Z,8.30
2023-02-11T18:57:06.005Z,9.10
2023-02-11T18:59:37.580Z,10.30
2023-02-11T19:02:07.978Z,8.00
2023-02-11T19:04:38.864Z,7.30
2023-02-11T19:07:09.341Z,9.60
2023-02-11T19:09:39.776Z,7.60
2023-02-11T19:12:11.866Z,8.40
2023-02-11T19:14:42.297Z,9.00
2023-02-11T19:17:13.326Z,9.20
2023-02-11T19:19:43.800Z,9.60
2023-02-11T19:22:14.322Z,8.30
2023-02-11T19:24:44.767Z,9.90
2023-02-11T19:27:15.201Z,8.20
2023-02-11T19:29:45.573Z,9.30
2023-02-11T19:32:16.687Z,9.20
2023-02-11T19:34:47.387Z,9.20
2023-02-11T19:37:17.805Z,9.50
2023-02-11T19:39:48.518Z,7.70
2023-02-11T19:42:19.120Z,12.30
2023-02-11T19:44:50.042Z,9.90
2023-02-11T19:47:26.654Z,8.30
2023-02-11T19:49:57.007Z,8.80
2023-02-11T19:52:27.532Z,7.60
2023-02-11T19:54:58.124Z,8.70
2023-02-11T19:57:38.464Z,8.30
2023-02-11T20:00:11.740Z,9.80
2023-02-11T20:02:42.256Z,8.40
2023-02-11T20:05:12.630Z,9.10
2023-02-11T20:07:43.184Z,8.10
2023-02-11T20:10:13.947Z,7.60
2023-02-11T20:12:45.121Z,8.10
2023-02-11T20:15:15.973Z,9.30
2023-02-11T20:17:46.532Z,8.30
2023-02-11T20:20:18.410Z,6.30
2023-02-11T20:22:48.841Z,8.20
2023-02-11T20:25:19.259Z,9.20
2023-02-11T20:27:49.525Z,9.50
2023-02-11T20:30:21.696Z,8.00
2023-02-11T20:32:52.314Z,7.30
2023-02-11T20:35:23.963Z,8.90
2023-02-11T20:37:55.000Z,7.00
2023-02-11T20:40:25.657Z,7.80
2023-02-11T20:42:56.731Z,7.90
2023-02-11T20:45:27.432Z,8.20
2023-02-11T20:47:57.940Z,7.70
2023-02-11T20:50:29.648Z,7.40
2023-02-11T20:53:00.063Z,6.30
2023-02-11T20:55:30.604Z,8.90
2023-02-11T20:58:01.213Z,8.80
2023-02-11T21:00:33.605Z,7.20
2023-02-11T21:03:04.535Z,8.60
2023-02-11T21:05:34.856Z,7.20
2023-02-11T21:08:05.476Z,7.20
2023-02-11T21:10:36.150Z,6.70
2023-02-11T21:13:07.581Z,9.60
2023-02-11T21:15:38.220Z,9.00
2023-02-11T21:18:08.925Z,10.60
2023-02-11T21:20:39.635Z,8.90
2023-02-11T21:23:10.027Z,8.50
2023-02-11T21:25:40.649Z,9.90
2023-02-11T21:28:11.106Z,7.90
2023-02-11T21:30:42.386Z,9.30
2023-02-11T21:33:13.072Z,7.90
2023-02-11T21:35:43.470Z,7.30
2023-02-11T21:38:14.731Z,8.50
2023-02-11T21:40:45.103Z,8.30
2023-02-11T21:43:15.820Z,8.40
2023-02-11T21:45:47.557Z,10.40
2023-02-11T21:48:19.045Z,7.30
2023-02-11T21:50:50.664Z,7.10
2023-02-11T21:53:21.521Z,7.30
2023-02-11T21:55:52.016Z,8.00
2023-02-11T21:58:22.738Z,7.20
2023-02-11T22:00:53.121Z,8.10
2023-02-11T22:03:23.914Z,7.60
2023-02-11T22:05:54.728Z,6.70
2023-02-11T22:08:25.329Z,6.30
2023-02-11T22:11:02.166Z,7.10
2023-02-11T22:13:32.689Z,8.00
2023-02-11T22:16:04.713Z,6.80
2023-02-11T22:18:35.340Z,6.90
2023-02-11T22:21:09.406Z,7.30
2023-02-11T22:23:41.026Z,8.70
2023-02-11T22:26:14.472Z,6.10
2023-02-11T22:28:45.415Z,5.40
2023-02-11T22:31:18.321Z,7.60
2023-02-11T22:33:49.571Z,6.50
2023-02-11T22:36:22.136Z,6.90
2023-02-11T22:38:53.346Z,6.90
2023-02-11T22:41:25.808Z,6.00
2023-02-11T22:43:57.285Z,6.70
2023-02-11T22:46:28.742Z,6.60
2023-02-11T22:48:59.086Z,5.20
2023-02-11T22:51:30.598Z,5.60
2023-02-11T22:54:02.962Z,4.80
2023-02-11T22:56:35.057Z,7.20
2023-02-11T22:59:08.310Z,6.30
2023-02-11T23:01:39.003Z,7.00
2023-02-11T23:04:12.528Z,5.20
2023-02-11T23:06:43.130Z,6.00
2023-02-11T23:09:14.264Z,6.00
2023-02-11T23:11:44.529Z,5.80
2023-02-11T23:14:15.105Z,4.40
2023-02-11T23:16:45.417Z,5.10
2023-02-11T23:19:16.970Z,5.40
2023-02-11T23:21:49.152Z,5.50
2023-02-11T23:24:19.477Z,5.70
2023-02-11T23:26:49.749Z,4.60
2023-02-11T23:29:20.176Z,5.60
2023-02-11T23:31:50.587Z,4.60
2023-02-11T23:34:25.210Z,6.20
2023-02-11T23:36:57.712Z,4.90
2023-02-11T23:39:28.011Z,4.20
2023-02-11T23:41:59.454Z,5.90
2023-02-11T23:44:30.377Z,6.10
2023-02-11T23:47:00.720Z,5.50
2023-02-11T23:49:30.984Z,5.50
2023-02-11T23:52:01.776Z,5.80
2023-02-11T23:54:32.039Z,6.10
2023-02-11T23:57:02.610Z,4.80
2023-02-11T23:59:32.887Z,6.40
